sensor_id;sensor_type;location;lat;lon;timestamp;pressure;altitude;pressure_sealevel;temperature;humidity
76126;BME280;65174;48.138;21.002;2023-08-21T00:03:52;99750.94;;;24.61;71.12
76126;BME280;65174;48.138;21.002;2023-08-21T00:06:54;99758.03;;;24.61;71.08
76126;BME280;65174;48.138;21.002;2023-08-21T00:09:56;99754.22;;;24.63;70.44
76126;BME280;65174;48.138;21.002;2023-08-21T00:12:58;99749.63;;;24.57;70.87
76126;BME280;65174;48.138;21.002;2023-08-21T00:16:00;99741.91;;;24.56;71.49
76126;BME280;65174;48.138;21.002;2023-08-21T00:19:02;99755.81;;;24.50;71.61
76126;BME280;65174;48.138;21.002;2023-08-21T00:22:04;99750.66;;;24.19;73.45
76126;BME280;65174;48.138;21.002;2023-08-21T00:25:06;99750.91;;;24.01;74.20
76126;BME280;65174;48.138;21.002;2023-08-21T00:28:08;99756.25;;;23.93;74.73
76126;BME280;65174;48.138;21.002;2023-08-21T00:31:10;99750.22;;;23.85;74.72
76126;BME280;65174;48.138;21.002;2023-08-21T00:34:12;99758.63;;;23.80;75.21
76126;BME280;65174;48.138;21.002;2023-08-21T00:37:15;99757.59;;;23.66;75.22
76126;BME280;65174;48.138;21.002;2023-08-21T00:40:17;99755.06;;;23.73;74.84
76126;BME280;65174;48.138;21.002;2023-08-21T00:43:20;99759.16;;;23.76;74.75
76126;BME280;65174;48.138;21.002;2023-08-21T00:46:23;99766.25;;;23.75;74.94
76126;BME280;65174;48.138;21.002;2023-08-21T00:49:25;99764.28;;;23.69;75.29
76126;BME280;65174;48.138;21.002;2023-08-21T00:52:27;99767.41;;;23.73;75.23
76126;BME280;65174;48.138;21.002;2023-08-21T00:55:31;99767.25;;;23.74;74.84
76126;BME280;65174;48.138;21.002;2023-08-21T00:58:33;99764.09;;;23.79;74.21
76126;BME280;65174;48.138;21.002;2023-08-21T01:01:37;99758.56;;;23.88;73.65
76126;BME280;65174;48.138;21.002;2023-08-21T01:04:59;99771.03;;;23.94;73.01
76126;BME280;65174;48.138;21.002;2023-08-21T01:08:15;99770.53;;;23.99;72.85
76126;BME280;65174;48.138;21.002;2023-08-21T01:17:37;99768.72;;;23.99;72.68
76126;BME280;65174;48.138;21.002;2023-08-21T01:20:40;99772.50;;;24.05;72.27
76126;BME280;65174;48.138;21.002;2023-08-21T01:23:43;99773.25;;;24.13;71.64
76126;BME280;65174;48.138;21.002;2023-08-21T01:26:45;99778.13;;;24.24;70.70
76126;BME280;65174;48.138;21.002;2023-08-21T01:29:47;99781.47;;;24.18;71.30
76126;BME280;65174;48.138;21.002;2023-08-21T01:33:08;99775.94;;;24.05;72.36
76126;BME280;65174;48.138;21.002;2023-08-21T01:36:14;99778.06;;;24.10;71.75
76126;BME280;65174;48.138;21.002;2023-08-21T01:39:16;99778.38;;;24.15;71.51
76126;BME280;65174;48.138;21.002;2023-08-21T01:42:18;99782.63;;;24.16;71.73
76126;BME280;65174;48.138;21.002;2023-08-21T01:45:22;99778.09;;;24.02;72.43
76126;BME280;65174;48.138;21.002;2023-08-21T01:48:25;99784.19;;;24.02;72.37
76126;BME280;65174;48.138;21.002;2023-08-21T01:51:27;99786.69;;;23.73;74.48
76126;BME280;65174;48.138;21.002;2023-08-21T01:54:29;99785.94;;;23.56;75.03
76126;BME280;65174;48.138;21.002;2023-08-21T01:57:32;99786.53;;;23.28;76.34
76126;BME280;65174;48.138;21.002;2023-08-21T02:00:34;99782.09;;;23.28;76.56
76126;BME280;65174;48.138;21.002;2023-08-21T02:03:36;99788.38;;;23.19;77.02
76126;BME280;65174;48.138;21.002;2023-08-21T02:06:38;99784.25;;;23.25;76.77
76126;BME280;65174;48.138;21.002;2023-08-21T02:09:41;99785.69;;;23.27;76.57
76126;BME280;65174;48.138;21.002;2023-08-21T02:12:44;99786.34;;;23.29;76.43
76126;BME280;65174;48.138;21.002;2023-08-21T02:15:47;99786.34;;;23.29;76.27
76126;BME280;65174;48.138;21.002;2023-08-21T02:18:49;99784.41;;;23.23;76.47
76126;BME280;65174;48.138;21.002;2023-08-21T02:21:54;99786.22;;;23.23;76.71
76126;BME280;65174;48.138;21.002;2023-08-21T02:24:56;99783.94;;;23.20;76.21
76126;BME280;65174;48.138;21.002;2023-08-21T02:27:58;99779.34;;;23.14;76.93
76126;BME280;65174;48.138;21.002;2023-08-21T02:31:00;99780.31;;;23.21;76.58
76126;BME280;65174;48.138;21.002;2023-08-21T02:34:02;99788.19;;;23.29;76.30
76126;BME280;65174;48.138;21.002;2023-08-21T02:37:04;99777.56;;;23.06;77.10
76126;BME280;65174;48.138;21.002;2023-08-21T02:40:07;99777.69;;;23.13;77.08
76126;BME280;65174;48.138;21.002;2023-08-21T02:43:11;99779.06;;;23.01;77.34
76126;BME280;65174;48.138;21.002;2023-08-21T02:46:13;99778.72;;;23.04;77.24
76126;BME280;65174;48.138;21.002;2023-08-21T02:49:15;99788.25;;;23.05;77.53
76126;BME280;65174;48.138;21.002;2023-08-21T02:52:18;99786.28;;;22.99;77.41
76126;BME280;65174;48.138;21.002;2023-08-21T02:55:20;99779.88;;;23.01;77.37
76126;BME280;65174;48.138;21.002;2023-08-21T02:58:22;99775.63;;;22.92;77.78
76126;BME280;65174;48.138;21.002;2023-08-21T03:01:24;99771.50;;;22.98;77.09
76126;BME280;65174;48.138;21.002;2023-08-21T03:04:26;99773.16;;;22.90;77.60
76126;BME280;65174;48.138;21.002;2023-08-21T03:07:28;99772.50;;;22.97;77.85
76126;BME280;65174;48.138;21.002;2023-08-21T03:10:30;99780.88;;;22.92;78.00
76126;BME280;65174;48.138;21.002;2023-08-21T03:13:35;99783.06;;;22.80;78.12
76126;BME280;65174;48.138;21.002;2023-08-21T03:16:37;99780.44;;;22.80;78.67
76126;BME280;65174;48.138;21.002;2023-08-21T03:19:39;99776.97;;;22.80;78.51
76126;BME280;65174;48.138;21.002;2023-08-21T03:22:41;99783.53;;;22.84;78.48
76126;BME280;65174;48.138;21.002;2023-08-21T03:25:43;99789.94;;;22.81;78.27
76126;BME280;65174;48.138;21.002;2023-08-21T03:28:45;99785.34;;;22.75;78.48
76126;BME280;65174;48.138;21.002;2023-08-21T03:31:52;99779.78;;;22.78;78.17
76126;BME280;65174;48.138;21.002;2023-08-21T03:34:56;99785.69;;;22.80;78.37
76126;BME280;65174;48.138;21.002;2023-08-21T03:37:58;99767.63;;;22.69;78.36
76126;BME280;65174;48.138;21.002;2023-08-21T03:41:04;99772.22;;;22.67;78.61
76126;BME280;65174;48.138;21.002;2023-08-21T03:44:07;99771.56;;;22.73;78.07
76126;BME280;65174;48.138;21.002;2023-08-21T03:47:09;99777.44;;;22.83;77.44
76126;BME280;65174;48.138;21.002;2023-08-21T03:50:23;99775.63;;;22.92;76.97
76126;BME280;65174;48.138;21.002;2023-08-21T03:53:25;99776.91;;;22.96;76.74
76126;BME280;65174;48.138;21.002;2023-08-21T03:56:27;99778.09;;;22.94;76.31
76126;BME280;65174;48.138;21.002;2023-08-21T03:59:29;99776.78;;;22.98;75.76
76126;BME280;65174;48.138;21.002;2023-08-21T04:02:31;99784.28;;;23.09;75.21
76126;BME280;65174;48.138;21.002;2023-08-21T04:05:33;99778.34;;;23.15;75.10
76126;BME280;65174;48.138;21.002;2023-08-21T04:08:35;99773.41;;;23.20;74.36
76126;BME280;65174;48.138;21.002;2023-08-21T04:11:37;99774.69;;;23.24;74.32
76126;BME280;65174;48.138;21.002;2023-08-21T04:14:40;99776.34;;;23.33;74.01
76126;BME280;65174;48.138;21.002;2023-08-21T04:17:42;99776.47;;;23.31;73.50
76126;BME280;65174;48.138;21.002;2023-08-21T04:20:44;99782.59;;;23.24;73.94
76126;BME280;65174;48.138;21.002;2023-08-21T04:23:46;99785.84;;;23.42;73.46
76126;BME280;65174;48.138;21.002;2023-08-21T04:26:48;99781.09;;;23.68;72.75
76126;BME280;65174;48.138;21.002;2023-08-21T04:29:50;99781.44;;;23.96;71.70
76126;BME280;65174;48.138;21.002;2023-08-21T04:32:52;99784.22;;;23.72;72.25
76126;BME280;65174;48.138;21.002;2023-08-21T04:39:51;99790.97;;;24.27;70.86
76126;BME280;65174;48.138;21.002;2023-08-21T04:42:53;99798.81;;;24.13;71.79
76126;BME280;65174;48.138;21.002;2023-08-21T04:45:57;99798.16;;;23.80;72.84
76126;BME280;65174;48.138;21.002;2023-08-21T04:48:59;99794.09;;;24.00;72.50
76126;BME280;65174;48.138;21.002;2023-08-21T04:52:01;99797.25;;;23.96;73.11
76126;BME280;65174;48.138;21.002;2023-08-21T04:55:05;99803.81;;;24.00;72.43
76126;BME280;65174;48.138;21.002;2023-08-21T04:58:10;99802.78;;;24.01;72.50
76126;BME280;65174;48.138;21.002;2023-08-21T05:01:12;99800.84;;;23.72;73.36
76126;BME280;65174;48.138;21.002;2023-08-21T05:04:19;99798.75;;;23.90;72.76
76126;BME280;65174;48.138;21.002;2023-08-21T05:07:22;99806.41;;;24.08;71.63
76126;BME280;65174;48.138;21.002;2023-08-21T05:10:26;99800.91;;;24.17;71.46
76126;BME280;65174;48.138;21.002;2023-08-21T05:13:28;99802.19;;;24.44;70.36
76126;BME280;65174;48.138;21.002;2023-08-21T05:16:30;99802.16;;;24.67;68.32
76126;BME280;65174;48.138;21.002;2023-08-21T05:19:32;99800.09;;;24.77;68.22
76126;BME280;65174;48.138;21.002;2023-08-21T05:22:34;99800.94;;;24.92;67.70
76126;BME280;65174;48.138;21.002;2023-08-21T05:25:36;99807.31;;;25.12;68.53
76126;BME280;65174;48.138;21.002;2023-08-21T05:28:38;99803.50;;;25.00;70.28
76126;BME280;65174;48.138;21.002;2023-08-21T05:31:40;99803.91;;;24.74;71.82
76126;BME280;65174;48.138;21.002;2023-08-21T05:34:47;99816.97;;;24.68;72.53
76126;BME280;65174;48.138;21.002;2023-08-21T05:37:49;99816.81;;;24.46;71.74
76126;BME280;65174;48.138;21.002;2023-08-21T05:40:55;99815.56;;;24.57;71.32
76126;BME280;65174;48.138;21.002;2023-08-21T05:43:57;99816.22;;;24.82;69.92
76126;BME280;65174;48.138;21.002;2023-08-21T05:47:00;99806.47;;;24.82;69.41
76126;BME280;65174;48.138;21.002;2023-08-21T05:50:03;99819.75;;;24.89;69.10
76126;BME280;65174;48.138;21.002;2023-08-21T05:53:06;99815.63;;;25.09;68.47
76126;BME280;65174;48.138;21.002;2023-08-21T05:56:08;99816.06;;;25.27;68.32
76126;BME280;65174;48.138;21.002;2023-08-21T05:59:10;99815.63;;;25.23;67.68
76126;BME280;65174;48.138;21.002;2023-08-21T06:02:14;99822.34;;;25.41;66.69
76126;BME280;65174;48.138;21.002;2023-08-21T06:05:16;99822.25;;;25.34;66.74
76126;BME280;65174;48.138;21.002;2023-08-21T06:08:19;99818.16;;;25.17;67.63
76126;BME280;65174;48.138;21.002;2023-08-21T06:11:21;99828.09;;;25.44;65.82
76126;BME280;65174;48.138;21.002;2023-08-21T06:14:23;99831.63;;;25.66;66.16
76126;BME280;65174;48.138;21.002;2023-08-21T06:17:34;99831.63;;;25.66;67.17
76126;BME280;65174;48.138;21.002;2023-08-21T06:20:36;99830.50;;;25.75;66.84
76126;BME280;65174;48.138;21.002;2023-08-21T06:23:38;99835.00;;;25.95;66.58
76126;BME280;65174;48.138;21.002;2023-08-21T06:26:40;99829.91;;;25.58;67.66
76126;BME280;65174;48.138;21.002;2023-08-21T06:29:42;99827.88;;;25.60;67.41
76126;BME280;65174;48.138;21.002;2023-08-21T06:32:45;99825.81;;;25.56;66.77
76126;BME280;65174;48.138;21.002;2023-08-21T06:35:47;99826.34;;;25.66;67.43
76126;BME280;65174;48.138;21.002;2023-08-21T06:38:50;99826.13;;;25.82;65.60
76126;BME280;65174;48.138;21.002;2023-08-21T06:41:52;99830.97;;;25.78;65.67
76126;BME280;65174;48.138;21.002;2023-08-21T06:44:54;99825.94;;;26.19;64.17
76126;BME280;65174;48.138;21.002;2023-08-21T06:47:56;99842.88;;;26.46;64.68
76126;BME280;65174;48.138;21.002;2023-08-21T06:50:58;99835.41;;;26.77;64.43
76126;BME280;65174;48.138;21.002;2023-08-21T06:54:01;99831.91;;;26.49;64.38
76126;BME280;65174;48.138;21.002;2023-08-21T06:57:03;99840.28;;;26.73;63.36
76126;BME280;65174;48.138;21.002;2023-08-21T07:00:05;99834.16;;;26.52;63.56
76126;BME280;65174;48.138;21.002;2023-08-21T07:03:08;99840.06;;;26.47;63.97
76126;BME280;65174;48.138;21.002;2023-08-21T07:06:10;99845.69;;;26.65;63.16
76126;BME280;65174;48.138;21.002;2023-08-21T07:09:12;99846.00;;;27.05;61.67
76126;BME280;65174;48.138;21.002;2023-08-21T07:12:14;99837.84;;;27.00;60.28
76126;BME280;65174;48.138;21.002;2023-08-21T07:15:16;99845.66;;;27.08;61.12
76126;BME280;65174;48.138;21.002;2023-08-21T07:18:18;99838.13;;;27.11;61.44
76126;BME280;65174;48.138;21.002;2023-08-21T07:21:20;99842.63;;;27.17;61.14
76126;BME280;65174;48.138;21.002;2023-08-21T07:24:34;99851.41;;;27.18;61.13
76126;BME280;65174;48.138;21.002;2023-08-21T07:27:36;99845.84;;;27.13;60.02
76126;BME280;65174;48.138;21.002;2023-08-21T07:30:38;99852.31;;;27.31;60.91
76126;BME280;65174;48.138;21.002;2023-08-21T07:33:40;99842.59;;;27.38;61.60
76126;BME280;65174;48.138;21.002;2023-08-21T07:36:42;99842.09;;;27.28;61.67
76126;BME280;65174;48.138;21.002;2023-08-21T07:39:44;99854.88;;;27.46;61.15
76126;BME280;65174;48.138;21.002;2023-08-21T07:42:46;99851.22;;;27.53;61.59
76126;BME280;65174;48.138;21.002;2023-08-21T07:45:48;99850.63;;;27.58;60.53
76126;BME280;65174;48.138;21.002;2023-08-21T07:48:50;99850.19;;;27.54;60.30
76126;BME280;65174;48.138;21.002;2023-08-21T07:51:52;99853.16;;;27.73;59.85
76126;BME280;65174;48.138;21.002;2023-08-21T07:54:54;99841.53;;;27.80;60.36
76126;BME280;65174;48.138;21.002;2023-08-21T07:57:56;99842.94;;;27.76;60.26
76126;BME280;65174;48.138;21.002;2023-08-21T08:00:59;99851.63;;;27.98;58.24
76126;BME280;65174;48.138;21.002;2023-08-21T08:04:01;99850.63;;;28.05;59.03
76126;BME280;65174;48.138;21.002;2023-08-21T08:07:03;99846.19;;;28.19;58.85
76126;BME280;65174;48.138;21.002;2023-08-21T08:10:05;99857.78;;;28.18;58.28
76126;BME280;65174;48.138;21.002;2023-08-21T08:13:07;99856.97;;;28.04;55.36
76126;BME280;65174;48.138;21.002;2023-08-21T08:16:09;99852.69;;;28.10;58.96
76126;BME280;65174;48.138;21.002;2023-08-21T08:19:12;99854.38;;;28.44;58.10
76126;BME280;65174;48.138;21.002;2023-08-21T08:22:14;99858.91;;;28.56;57.01
76126;BME280;65174;48.138;21.002;2023-08-21T08:25:16;99853.78;;;28.74;57.36
76126;BME280;65174;48.138;21.002;2023-08-21T08:28:18;99854.41;;;28.89;57.02
76126;BME280;65174;48.138;21.002;2023-08-21T08:31:20;99845.22;;;28.85;56.57
76126;BME280;65174;48.138;21.002;2023-08-21T08:34:22;99843.78;;;28.89;57.17
76126;BME280;65174;48.138;21.002;2023-08-21T08:37:24;99851.13;;;29.07;56.27
76126;BME280;65174;48.138;21.002;2023-08-21T08:40:26;99852.31;;;29.24;55.34
76126;BME280;65174;48.138;21.002;2023-08-21T08:43:28;99851.75;;;29.16;55.34
76126;BME280;65174;48.138;21.002;2023-08-21T08:46:31;99852.75;;;29.01;56.66
76126;BME280;65174;48.138;21.002;2023-08-21T08:49:34;99847.81;;;29.31;56.72
76126;BME280;65174;48.138;21.002;2023-08-21T08:52:39;99854.91;;;29.57;55.51
76126;BME280;65174;48.138;21.002;2023-08-21T08:55:42;99850.19;;;29.59;56.43
76126;BME280;65174;48.138;21.002;2023-08-21T08:58:44;99851.78;;;29.73;55.46
76126;BME280;65174;48.138;21.002;2023-08-21T09:01:46;99849.66;;;29.95;54.33
76126;BME280;65174;48.138;21.002;2023-08-21T09:04:48;99848.84;;;29.88;52.44
76126;BME280;65174;48.138;21.002;2023-08-21T09:08:11;99847.22;;;29.93;52.48
76126;BME280;65174;48.138;21.002;2023-08-21T09:11:16;99841.22;;;29.98;50.77
76126;BME280;65174;48.138;21.002;2023-08-21T09:14:26;99837.97;;;29.96;51.62
76126;BME280;65174;48.138;21.002;2023-08-21T09:17:28;99839.56;;;30.03;50.56
76126;BME280;65174;48.138;21.002;2023-08-21T09:20:35;99836.72;;;30.36;50.68
76126;BME280;65174;48.138;21.002;2023-08-21T09:23:38;99840.13;;;30.49;47.54
76126;BME280;65174;48.138;21.002;2023-08-21T09:26:39;99843.44;;;30.07;49.30
76126;BME280;65174;48.138;21.002;2023-08-21T09:29:42;99839.72;;;30.08;48.00
76126;BME280;65174;48.138;21.002;2023-08-21T09:32:59;99828.50;;;30.37;47.65
76126;BME280;65174;48.138;21.002;2023-08-21T09:36:03;99826.94;;;30.30;48.10
76126;BME280;65174;48.138;21.002;2023-08-21T09:39:14;99833.91;;;30.31;46.80
76126;BME280;65174;48.138;21.002;2023-08-21T09:42:17;99829.25;;;30.20;47.29
76126;BME280;65174;48.138;21.002;2023-08-21T09:45:23;99827.91;;;30.35;45.68
76126;BME280;65174;48.138;21.002;2023-08-21T09:48:26;99826.81;;;30.49;45.71
76126;BME280;65174;48.138;21.002;2023-08-21T09:51:34;99822.66;;;30.53;47.59
76126;BME280;65174;48.138;21.002;2023-08-21T09:54:41;99828.75;;;30.60;45.39
76126;BME280;65174;48.138;21.002;2023-08-21T09:57:44;99815.53;;;30.72;45.52
76126;BME280;65174;48.138;21.002;2023-08-21T10:00:48;99829.47;;;30.49;45.54
76126;BME280;65174;48.138;21.002;2023-08-21T10:03:53;99818.38;;;30.52;46.04
76126;BME280;65174;48.138;21.002;2023-08-21T10:06:56;99820.00;;;30.53;47.30
76126;BME280;65174;48.138;21.002;2023-08-21T10:10:12;99809.22;;;30.42;46.07
76126;BME280;65174;48.138;21.002;2023-08-21T10:13:15;99818.25;;;30.90;44.65
76126;BME280;65174;48.138;21.002;2023-08-21T10:16:19;99803.56;;;31.06;44.61
76126;BME280;65174;48.138;21.002;2023-08-21T10:19:23;99817.97;;;30.98;42.93
76126;BME280;65174;48.138;21.002;2023-08-21T10:25:45;99807.34;;;31.16;41.58
76126;BME280;65174;48.138;21.002;2023-08-21T10:32:02;99802.53;;;31.25;41.76
76126;BME280;65174;48.138;21.002;2023-08-21T10:35:14;99799.53;;;31.15;43.05
76126;BME280;65174;48.138;21.002;2023-08-21T10:38:17;99789.84;;;31.38;39.67
76126;BME280;65174;48.138;21.002;2023-08-21T10:41:26;99802.97;;;31.58;41.80
76126;BME280;65174;48.138;21.002;2023-08-21T10:44:46;99792.31;;;31.04;41.06
76126;BME280;65174;48.138;21.002;2023-08-21T10:48:02;99795.13;;;31.45;40.70
76126;BME280;65174;48.138;21.002;2023-08-21T10:51:06;99796.47;;;31.54;39.95
76126;BME280;65174;48.138;21.002;2023-08-21T10:54:13;99787.72;;;31.47;40.03
76126;BME280;65174;48.138;21.002;2023-08-21T10:57:15;99786.97;;;31.58;41.37
76126;BME280;65174;48.138;21.002;2023-08-21T11:00:18;99782.16;;;31.49;40.13
76126;BME280;65174;48.138;21.002;2023-08-21T11:03:22;99789.06;;;31.86;39.69
76126;BME280;65174;48.138;21.002;2023-08-21T11:06:24;99779.28;;;31.50;40.90
76126;BME280;65174;48.138;21.002;2023-08-21T11:09:26;99791.44;;;31.94;40.13
76126;BME280;65174;48.138;21.002;2023-08-21T11:12:28;99789.63;;;31.22;42.25
76126;BME280;65174;48.138;21.002;2023-08-21T11:15:30;99798.50;;;31.34;42.93
76126;BME280;65174;48.138;21.002;2023-08-21T11:18:36;99782.31;;;31.54;42.06
76126;BME280;65174;48.138;21.002;2023-08-21T11:21:42;99780.41;;;31.72;42.56
76126;BME280;65174;48.138;21.002;2023-08-21T11:24:47;99784.97;;;31.54;40.91
76126;BME280;65174;48.138;21.002;2023-08-21T11:27:49;99785.47;;;31.62;38.96
76126;BME280;65174;48.138;21.002;2023-08-21T11:30:51;99776.59;;;31.80;39.33
76126;BME280;65174;48.138;21.002;2023-08-21T11:33:53;99766.31;;;31.83;37.92
76126;BME280;65174;48.138;21.002;2023-08-21T11:36:56;99779.84;;;31.82;41.17
76126;BME280;65174;48.138;21.002;2023-08-21T11:39:58;99773.16;;;31.61;40.69
76126;BME280;65174;48.138;21.002;2023-08-21T11:43:01;99769.72;;;31.61;40.82
76126;BME280;65174;48.138;21.002;2023-08-21T11:46:04;99770.72;;;31.89;37.77
76126;BME280;65174;48.138;21.002;2023-08-21T11:49:06;99771.63;;;32.13;39.49
76126;BME280;65174;48.138;21.002;2023-08-21T11:52:12;99765.88;;;32.28;37.68
76126;BME280;65174;48.138;21.002;2023-08-21T11:55:13;99772.94;;;32.34;37.13
76126;BME280;65174;48.138;21.002;2023-08-21T11:58:17;99770.50;;;31.91;36.76
76126;BME280;65174;48.138;21.002;2023-08-21T12:01:21;99769.75;;;31.72;41.29
76126;BME280;65174;48.138;21.002;2023-08-21T12:04:25;99757.16;;;31.61;39.92
76126;BME280;65174;48.138;21.002;2023-08-21T12:07:27;99753.69;;;32.32;39.81
76126;BME280;65174;48.138;21.002;2023-08-21T12:10:29;99753.69;;;32.32;38.16
76126;BME280;65174;48.138;21.002;2023-08-21T12:13:31;99751.94;;;32.26;38.83
76126;BME280;65174;48.138;21.002;2023-08-21T12:16:37;99753.69;;;32.32;38.42
76126;BME280;65174;48.138;21.002;2023-08-21T12:19:39;99753.91;;;32.42;37.86
76126;BME280;65174;48.138;21.002;2023-08-21T12:22:41;99759.28;;;32.53;38.80
76126;BME280;65174;48.138;21.002;2023-08-21T12:25:46;99752.97;;;32.25;36.37
76126;BME280;65174;48.138;21.002;2023-08-21T12:28:48;99746.13;;;32.40;36.92
76126;BME280;65174;48.138;21.002;2023-08-21T12:31:51;99749.84;;;32.39;36.50
76126;BME280;65174;48.138;21.002;2023-08-21T12:34:53;99749.84;;;32.39;38.61
76126;BME280;65174;48.138;21.002;2023-08-21T12:37:56;99743.38;;;32.58;37.46
76126;BME280;65174;48.138;21.002;2023-08-21T12:40:59;99739.31;;;32.56;36.49
76126;BME280;65174;48.138;21.002;2023-08-21T12:44:01;99748.38;;;32.55;35.91
76126;BME280;65174;48.138;21.002;2023-08-21T12:47:04;99744.03;;;32.19;36.25
76126;BME280;65174;48.138;21.002;2023-08-21T12:54:05;99742.66;;;32.51;36.72
76126;BME280;65174;48.138;21.002;2023-08-21T12:57:08;99747.69;;;32.59;35.87
76126;BME280;65174;48.138;21.002;2023-08-21T13:00:11;99746.91;;;32.41;34.94
76126;BME280;65174;48.138;21.002;2023-08-21T13:04:11;64582.16;;;-140.13;100.00
76126;BME280;65174;48.138;21.002;2023-08-21T13:07:15;99746.91;;;32.41;34.94
76126;BME280;65174;48.138;21.002;2023-08-21T13:10:17;99729.66;;;32.66;35.43
76126;BME280;65174;48.138;21.002;2023-08-21T13:13:19;99734.50;;;32.23;36.49
76126;BME280;65174;48.138;21.002;2023-08-21T13:16:21;99723.13;;;32.16;37.72
76126;BME280;65174;48.138;21.002;2023-08-21T13:19:24;99731.34;;;32.15;36.97
76126;BME280;65174;48.138;21.002;2023-08-21T13:22:26;99720.38;;;32.69;37.92
76126;BME280;65174;48.138;21.002;2023-08-21T13:25:28;99708.13;;;32.84;37.12
76126;BME280;65174;48.138;21.002;2023-08-21T13:28:30;99700.59;;;32.81;37.03
76126;BME280;65174;48.138;21.002;2023-08-21T13:31:33;99714.09;;;32.75;37.10
76126;BME280;65174;48.138;21.002;2023-08-21T13:34:35;99714.41;;;32.32;36.90
76126;BME280;65174;48.138;21.002;2023-08-21T13:37:37;99707.34;;;32.49;37.00
76126;BME280;65174;48.138;21.002;2023-08-21T13:40:40;99709.44;;;32.47;35.96
76126;BME280;65174;48.138;21.002;2023-08-21T13:43:42;99708.94;;;32.16;36.37
76126;BME280;65174;48.138;21.002;2023-08-21T13:46:47;99698.84;;;32.18;36.20
76126;BME280;65174;48.138;21.002;2023-08-21T13:50:09;99701.91;;;32.56;36.81
76126;BME280;65174;48.138;21.002;2023-08-21T13:53:12;99697.72;;;32.60;37.02
76126;BME280;65174;48.138;21.002;2023-08-21T13:56:13;99702.94;;;32.66;36.77
76126;BME280;65174;48.138;21.002;2023-08-21T13:59:16;99700.00;;;32.45;35.42
76126;BME280;65174;48.138;21.002;2023-08-21T14:02:18;99696.56;;;32.56;35.06
76126;BME280;65174;48.138;21.002;2023-08-21T14:05:20;99698.75;;;32.24;36.06
76126;BME280;65174;48.138;21.002;2023-08-21T14:08:22;99697.59;;;32.32;35.72
76126;BME280;65174;48.138;21.002;2023-08-21T14:11:24;99686.22;;;32.25;35.54
76126;BME280;65174;48.138;21.002;2023-08-21T14:14:26;99691.78;;;32.58;34.73
76126;BME280;65174;48.138;21.002;2023-08-21T14:17:28;99681.47;;;32.38;35.14
76126;BME280;65174;48.138;21.002;2023-08-21T14:20:30;99685.84;;;32.33;34.21
76126;BME280;65174;48.138;21.002;2023-08-21T14:27:07;99675.16;;;32.33;33.72
76126;BME280;65174;48.138;21.002;2023-08-21T14:30:09;99676.31;;;32.13;34.81
76126;BME280;65174;48.138;21.002;2023-08-21T14:33:11;99676.22;;;32.08;35.06
76126;BME280;65174;48.138;21.002;2023-08-21T14:36:13;99672.50;;;32.44;34.38
76126;BME280;65174;48.138;21.002;2023-08-21T14:39:15;99660.09;;;32.50;35.71
76126;BME280;65174;48.138;21.002;2023-08-21T14:42:18;99663.84;;;32.49;35.84
76126;BME280;65174;48.138;21.002;2023-08-21T14:45:20;99660.69;;;32.17;35.83
76126;BME280;65174;48.138;21.002;2023-08-21T14:48:23;99656.59;;;32.38;35.56
76126;BME280;65174;48.138;21.002;2023-08-21T14:51:24;99660.22;;;32.32;35.49
76126;BME280;65174;48.138;21.002;2023-08-21T14:54:26;99650.94;;;32.34;35.46
76126;BME280;65174;48.138;21.002;2023-08-21T14:57:28;99654.38;;;32.35;35.29
76126;BME280;65174;48.138;21.002;2023-08-21T15:00:30;99646.16;;;32.13;35.18
76126;BME280;65174;48.138;21.002;2023-08-21T15:03:32;99648.53;;;31.80;35.13
76126;BME280;65174;48.138;21.002;2023-08-21T15:06:35;99649.88;;;32.24;34.60
76126;BME280;65174;48.138;21.002;2023-08-21T15:09:37;99643.03;;;32.16;36.14
76126;BME280;65174;48.138;21.002;2023-08-21T15:12:39;99649.75;;;32.19;34.13
76126;BME280;65174;48.138;21.002;2023-08-21T15:15:41;99643.50;;;32.13;35.11
76126;BME280;65174;48.138;21.002;2023-08-21T15:18:43;99654.88;;;32.08;34.79
76126;BME280;65174;48.138;21.002;2023-08-21T15:21:47;99644.19;;;31.97;34.73
76126;BME280;65174;48.138;21.002;2023-08-21T15:24:49;99640.22;;;31.88;35.27
76126;BME280;65174;48.138;21.002;2023-08-21T15:27:51;99648.72;;;31.96;35.36
76126;BME280;65174;48.138;21.002;2023-08-21T15:30:53;99647.78;;;32.02;35.77
76126;BME280;65174;48.138;21.002;2023-08-21T15:33:55;99641.63;;;32.02;35.52
76126;BME280;65174;48.138;21.002;2023-08-21T15:36:57;99641.75;;;31.95;36.33
76126;BME280;65174;48.138;21.002;2023-08-21T15:40:00;99639.06;;;31.84;36.63
76126;BME280;65174;48.138;21.002;2023-08-21T15:43:04;99636.38;;;31.84;36.72
76126;BME280;65174;48.138;21.002;2023-08-21T15:46:07;99638.53;;;31.64;37.08
76126;BME280;65174;48.138;21.002;2023-08-21T15:49:09;99633.34;;;31.69;37.54
76126;BME280;65174;48.138;21.002;2023-08-21T15:52:11;99631.50;;;31.92;36.90
76126;BME280;65174;48.138;21.002;2023-08-21T15:55:14;99636.03;;;31.92;37.28
76126;BME280;65174;48.138;21.002;2023-08-21T15:58:16;99630.50;;;31.93;36.81
76126;BME280;65174;48.138;21.002;2023-08-21T16:01:18;99633.91;;;31.82;36.80
76126;BME280;65174;48.138;21.002;2023-08-21T16:04:20;99634.50;;;31.84;37.00
76126;BME280;65174;48.138;21.002;2023-08-21T16:07:22;99631.25;;;31.82;36.75
76126;BME280;65174;48.138;21.002;2023-08-21T16:10:24;99635.75;;;31.59;37.43
76126;BME280;65174;48.138;21.002;2023-08-21T16:13:26;99632.53;;;31.38;38.06
76126;BME280;65174;48.138;21.002;2023-08-21T16:16:28;99630.09;;;31.37;38.27
76126;BME280;65174;48.138;21.002;2023-08-21T16:19:29;99632.50;;;31.27;38.52
76126;BME280;65174;48.138;21.002;2023-08-21T16:22:33;99631.91;;;31.25;38.76
76126;BME280;65174;48.138;21.002;2023-08-21T16:25:36;99632.84;;;31.30;39.40